Aérodrome :
LOGIN :

S'inscrire | Disclaimer

   EN    FR    IT 

 










Légende :    VFR   VFR Marginal   IFR   IFR Intensif   IFR Très Intensif
Visi : 
Plafond : 
>= 8 km
>= 3000ft
5 à 8 km
1000 à 3000 ft
1500m à 5 km
500 à 1000 ft
800 à 1500m
200 à 500 ft
< 800m
< 200 ft
Symboles :   Orages  Brouillard  Fortes neiges  Fortes précipitations  Vent > 20 kt
SIGMETs :   Divers  Orages  Givrage  Turbulence  Onde Orograph.  Cendres Volcan.







- Altitude de l'aérodrome : 433 ft
- Code IATA : CCF
- Voir les cartes d'approche


LFMK - Carcassonne

DERNIER METAR :
  • 141800Z AUTO 08011KT 9999 BKN016 OVC022 16/14 Q1022 TEMPO 09015G25KT BECMG BKN010

METARs EXPIRÉS :
  • 141730Z AUTO 08011KT 9999 BKN011 OVC019 17/15 Q1022 TEMPO 09015G25KT
  • 141700Z AUTO 08012KT 9999 FEW012 OVC020 17/15 Q1022 TEMPO 09015G25KT BECMG BKN010
  • 141630Z AUTO 08012KT 9999 BKN013 OVC021 17/15 Q1022 TEMPO 09015G25KT
  • 141600Z AUTO 09014KT 9999 BKN014 OVC020 17/15 Q1022 TEMPO 09015G25KT
  • 141530Z AUTO 08014KT 9999 BKN012 OVC020 17/15 Q1022 TEMPO 09015G25KT

TAF TAF LFMK
Valide du 14 à 15h jusqu'au 15 à 15h UTC


141400Z 1415/1515 09015KT 9999 BKN010
TEMPO 1415/1515 09015G25KT
PROB30
TEMPO 1509/1513 RA
Pas de NOTAMs connus pour ce terrain.



MET'MAP, la Météo Aéronautique d'un coup d'oeil ! - Copyright ORBIFLY Décembre 2007 - Disclaimer

ORBIFLY MET'MAP TEAM :

Programmation & Développement : Alexandra Zaïnal
Conception & Développement : Baudouin d'Aumeries
Co-Programmation & Développement : Marc-Olivier Méhu
Soutien technique & logistique : Manuel Goepfert

Contact : metmap@orbifly.com




SOURCES & CREDITS :

   NOAA